createdAt,value
2022-10-18T00:02:56.830Z,21.51
2022-10-18T00:08:04.178Z,21.55
2022-10-18T00:13:11.895Z,21.48
2022-10-18T00:18:16.132Z,21.43
2022-10-18T00:23:20.096Z,21.43
2022-10-18T00:28:23.486Z,21.44
2022-10-18T00:33:26.634Z,21.50
2022-10-18T00:38:29.838Z,21.48
2022-10-18T00:43:33.420Z,21.45
2022-10-18T00:48:36.949Z,21.42
2022-10-18T00:53:43.786Z,21.41
2022-10-18T00:58:56.135Z,21.43
2022-10-18T01:03:59.750Z,21.44
2022-10-18T01:09:28.739Z,21.44
2022-10-18T01:15:06.297Z,21.42
2022-10-18T01:20:28.489Z,21.42
2022-10-18T01:25:58.086Z,21.41
2022-10-18T01:31:25.926Z,21.46
2022-10-18T01:36:34.103Z,21.49
2022-10-18T01:41:41.086Z,21.22
2022-10-18T01:46:48.080Z,20.57
2022-10-18T01:52:05.789Z,20.11
2022-10-18T01:57:24.056Z,19.88
2022-10-18T02:02:42.762Z,19.70
2022-10-18T02:08:12.452Z,19.61
2022-10-18T02:13:29.275Z,19.59
2022-10-18T02:19:08.750Z,19.58
2022-10-18T02:24:17.900Z,19.56
2022-10-18T02:29:21.705Z,19.49
2022-10-18T02:34:32.388Z,19.32
2022-10-18T02:39:39.338Z,19.35
2022-10-18T02:44:43.345Z,19.26
2022-10-18T02:49:46.707Z,19.24
2022-10-18T02:54:50.140Z,19.16
2022-10-18T02:59:53.930Z,19.08
2022-10-18T03:04:57.372Z,19.05
2022-10-18T03:10:01.306Z,19.04
2022-10-18T03:15:06.448Z,19.03
2022-10-18T03:20:10.139Z,19.01
2022-10-18T03:25:13.534Z,18.99
2022-10-18T03:30:17.605Z,18.99
2022-10-18T03:35:21.510Z,18.97
2022-10-18T03:40:24.882Z,18.99
2022-10-18T03:45:31.225Z,19.03
2022-10-18T03:50:35.560Z,19.04
2022-10-18T03:55:39.153Z,19.02
2022-10-18T04:00:42.952Z,18.99
2022-10-18T04:05:48.215Z,19.00
2022-10-18T04:10:51.773Z,19.01
2022-10-18T04:15:55.583Z,19.07
2022-10-18T04:20:59.017Z,19.10
2022-10-18T04:26:02.304Z,19.10
2022-10-18T04:31:06.870Z,19.12
2022-10-18T04:36:10.460Z,19.17
2022-10-18T04:41:13.780Z,19.21
2022-10-18T04:46:17.075Z,19.31
2022-10-18T04:51:20.464Z,19.39
2022-10-18T04:56:23.984Z,19.47
2022-10-18T05:01:27.911Z,19.56
2022-10-18T05:06:31.498Z,19.74
2022-10-18T05:11:34.962Z,19.93
2022-10-18T05:16:38.411Z,20.51
2022-10-18T05:21:43.726Z,20.98
2022-10-18T05:26:50.035Z,21.18
2022-10-18T05:31:54.808Z,21.18
2022-10-18T05:36:59.552Z,21.17
2022-10-18T05:42:03.096Z,21.19
2022-10-18T05:47:06.544Z,21.24
2022-10-18T05:52:09.729Z,21.38
2022-10-18T05:57:13.024Z,21.52
2022-10-18T06:02:16.319Z,21.88
2022-10-18T06:07:19.624Z,22.06
2022-10-18T06:12:23.018Z,22.29
2022-10-18T06:17:28.986Z,22.38
2022-10-18T06:22:35.733Z,22.41
2022-10-18T06:27:41.447Z,22.52
2022-10-18T06:32:47.229Z,22.80
2022-10-18T06:37:50.812Z,22.93
2022-10-18T06:43:00.456Z,23.11
2022-10-18T06:48:17.642Z,23.25
2022-10-18T06:53:21.619Z,23.33
2022-10-18T06:58:25.239Z,23.22
2022-10-18T07:03:28.655Z,23.07
2022-10-18T07:08:34.720Z,23.02
2022-10-18T07:13:39.839Z,22.95
2022-10-18T07:18:45.914Z,22.96
2022-10-18T07:23:50.516Z,22.96
2022-10-18T07:29:07.507Z,22.96
2022-10-18T07:34:20.188Z,23.04
2022-10-18T07:39:32.006Z,23.18
2022-10-18T07:44:35.291Z,23.40
2022-10-18T07:49:38.503Z,23.56
2022-10-18T07:54:42.400Z,23.85
2022-10-18T07:59:45.854Z,23.93
2022-10-18T08:04:49.959Z,23.92
2022-10-18T08:09:53.536Z,23.98
2022-10-18T08:14:56.999Z,23.97
2022-10-18T08:20:11.676Z,24.06
2022-10-18T08:25:16.088Z,24.07
2022-10-18T08:30:19.402Z,24.07
2022-10-18T08:35:22.755Z,24.08
2022-10-18T08:40:27.172Z,24.15
2022-10-18T08:45:42.353Z,24.21
2022-10-18T08:50:47.099Z,24.23
2022-10-18T08:56:10.495Z,24.33
2022-10-18T09:01:35.553Z,24.48
2022-10-18T09:06:38.696Z,24.58
2022-10-18T09:11:47.112Z,24.64
2022-10-18T09:17:02.665Z,24.60
2022-10-18T09:22:13.968Z,24.65
2022-10-18T09:27:20.346Z,24.80
2022-10-18T09:32:54.721Z,24.84
2022-10-18T09:38:09.907Z,24.92
2022-10-18T09:43:25.999Z,24.89
2022-10-18T09:48:49.487Z,24.78
2022-10-18T09:53:55.548Z,24.73
2022-10-18T09:58:58.728Z,24.72
2022-10-18T10:04:01.957Z,24.73
2022-10-18T10:09:15.860Z,24.79
2022-10-18T10:14:25.966Z,24.79
2022-10-18T10:19:56.408Z,24.72
2022-10-18T10:25:00.024Z,24.71
2022-10-18T10:30:07.218Z,24.74
2022-10-18T10:35:53.372Z,24.58
2022-10-18T10:40:57.548Z,24.62
2022-10-18T10:46:02.754Z,24.59
2022-10-18T10:51:10.831Z,24.68
2022-10-18T10:56:21.235Z,24.85
2022-10-18T11:01:33.339Z,24.92
2022-10-18T11:06:43.086Z,24.86
2022-10-18T11:11:59.231Z,24.98
2022-10-18T11:17:26.091Z,25.02
2022-10-18T11:22:38.286Z,25.01
2022-10-18T11:28:06.754Z,24.89
2022-10-18T11:34:07.013Z,24.89
2022-10-18T11:39:43.262Z,24.89
2022-10-18T11:45:10.990Z,24.85
2022-10-18T11:50:58.903Z,24.82
2022-10-18T11:56:25.083Z,24.85
2022-10-18T12:01:41.434Z,24.77
2022-10-18T12:06:49.452Z,24.67
2022-10-18T12:12:09.219Z,24.60
2022-10-18T12:17:51.485Z,24.64
2022-10-18T12:23:04.740Z,24.66
2022-10-18T12:28:36.895Z,24.64
2022-10-18T12:33:45.321Z,24.64
2022-10-18T12:39:01.092Z,24.61
2022-10-18T12:44:36.784Z,24.56
2022-10-18T12:49:42.673Z,24.51
2022-10-18T12:55:17.017Z,24.45
2022-10-18T13:00:30.319Z,24.40
2022-10-18T13:05:53.500Z,24.38
2022-10-18T13:11:09.904Z,24.38
2022-10-18T13:16:15.865Z,24.31
2022-10-18T13:21:40.409Z,24.27
2022-10-18T13:27:36.759Z,24.19
2022-10-18T13:32:52.365Z,24.14
2022-10-18T13:37:59.941Z,24.09
2022-10-18T13:43:51.523Z,24.04
2022-10-18T13:49:20.130Z,24.00
2022-10-18T13:54:51.529Z,23.96
2022-10-18T14:00:56.542Z,23.88
2022-10-18T14:06:20.336Z,23.77
2022-10-18T14:11:48.243Z,23.68
2022-10-18T14:17:03.888Z,23.62
2022-10-18T14:22:09.867Z,23.58
2022-10-18T14:27:20.684Z,23.52
2022-10-18T14:32:32.852Z,23.43
2022-10-18T14:37:36.895Z,23.30
2022-10-18T14:42:48.928Z,23.22
2022-10-18T14:47:52.270Z,23.08
2022-10-18T14:52:55.708Z,22.98
2022-10-18T14:57:59.734Z,22.86
2022-10-18T15:03:13.490Z,22.76
2022-10-18T15:08:17.540Z,22.66
2022-10-18T15:13:20.904Z,22.56
2022-10-18T15:18:26.648Z,22.48
2022-10-18T15:23:32.399Z,22.40
2022-10-18T15:28:45.625Z,22.34
2022-10-18T15:33:49.095Z,22.23
2022-10-18T15:38:52.214Z,22.16
2022-10-18T15:44:26.946Z,22.10
2022-10-18T15:49:30.344Z,22.03
2022-10-18T15:54:33.789Z,21.98
2022-10-18T15:59:49.208Z,21.94
2022-10-18T16:04:52.668Z,21.90
2022-10-18T16:09:56.247Z,21.85
2022-10-18T16:14:59.443Z,21.83
2022-10-18T16:20:02.834Z,21.78
2022-10-18T16:25:06.489Z,21.77
2022-10-18T16:30:16.842Z,21.73
2022-10-18T16:35:21.126Z,21.68
2022-10-18T16:40:26.761Z,21.64
2022-10-18T16:45:30.172Z,21.62
2022-10-18T16:50:35.503Z,21.59
2022-10-18T16:55:41.024Z,21.57
2022-10-18T17:00:45.461Z,21.53
2022-10-18T17:05:48.745Z,21.51
2022-10-18T17:10:54.136Z,21.48
2022-10-18T17:15:57.356Z,21.46
2022-10-18T17:21:00.916Z,21.43
2022-10-18T17:26:21.923Z,21.41
2022-10-18T17:31:29.344Z,21.36
2022-10-18T17:36:34.301Z,21.31
2022-10-18T17:41:37.906Z,21.30
2022-10-18T17:46:41.484Z,21.21
2022-10-18T17:51:45.047Z,21.20
2022-10-18T17:56:52.311Z,21.17
2022-10-18T18:01:58.452Z,21.15
2022-10-18T18:07:03.559Z,21.12
2022-10-18T18:12:07.022Z,21.08
2022-10-18T18:17:11.597Z,21.06
2022-10-18T18:22:17.030Z,21.02
2022-10-18T18:27:20.715Z,20.99
2022-10-18T18:32:25.299Z,20.97
2022-10-18T18:37:28.693Z,20.94
2022-10-18T18:42:32.770Z,20.93
2022-10-18T18:47:39.361Z,20.90
2022-10-18T18:52:42.861Z,20.87
2022-10-18T18:57:46.657Z,20.87
2022-10-18T19:02:49.907Z,20.87
2022-10-18T19:07:53.175Z,20.85
2022-10-18T19:12:57.135Z,20.85
2022-10-18T19:18:00.286Z,20.85
2022-10-18T19:23:03.849Z,20.85
2022-10-18T19:28:07.112Z,20.84
2022-10-18T19:33:10.128Z,20.82
2022-10-18T19:38:14.101Z,20.80
2022-10-18T19:43:17.546Z,20.77
2022-10-18T19:48:20.900Z,20.74
2022-10-18T19:53:24.176Z,20.72
2022-10-18T19:58:28.162Z,20.71
2022-10-18T20:03:31.501Z,20.72
2022-10-18T20:08:36.393Z,20.70
2022-10-18T20:13:40.010Z,20.69
2022-10-18T20:18:44.266Z,20.66
2022-10-18T20:23:47.949Z,20.67
2022-10-18T20:28:52.870Z,20.63
2022-10-18T20:34:02.107Z,20.67
2022-10-18T20:39:06.137Z,20.66
2022-10-18T20:44:13.792Z,20.62
2022-10-18T20:49:17.738Z,20.58
2022-10-18T20:54:21.223Z,20.55
2022-10-18T20:59:25.374Z,20.53
2022-10-18T21:04:28.730Z,20.50
2022-10-18T21:09:32.186Z,20.47
2022-10-18T21:14:35.266Z,20.44
2022-10-18T21:19:38.466Z,20.41
2022-10-18T21:24:41.957Z,20.40
2022-10-18T21:29:45.523Z,20.37
2022-10-18T21:34:54.266Z,20.37
2022-10-18T21:40:08.117Z,20.34
2022-10-18T21:45:11.463Z,20.36
2022-10-18T21:50:14.991Z,20.31
2022-10-18T21:55:18.304Z,20.31
2022-10-18T22:00:22.051Z,20.30
2022-10-18T22:05:25.739Z,20.28
2022-10-18T22:10:29.349Z,20.26
2022-10-18T22:15:32.909Z,20.26
2022-10-18T22:20:36.179Z,20.24
2022-10-18T22:25:39.469Z,20.24
2022-10-18T22:30:42.718Z,20.20
2022-10-18T22:35:50.333Z,20.20
2022-10-18T22:40:54.156Z,20.18
2022-10-18T22:46:04.136Z,20.18
2022-10-18T22:51:09.509Z,20.16
2022-10-18T22:56:16.822Z,20.12
2022-10-18T23:01:22.708Z,20.09
2022-10-18T23:06:31.713Z,20.06
2022-10-18T23:11:37.015Z,20.03
2022-10-18T23:16:40.367Z,20.03
2022-10-18T23:21:45.598Z,20.03
2022-10-18T23:26:48.900Z,20.01
2022-10-18T23:31:52.059Z,19.97
2022-10-18T23:37:27.231Z,19.96
2022-10-18T23:42:30.500Z,19.93
2022-10-18T23:47:34.373Z,19.93
2022-10-18T23:52:38.227Z,19.93
2022-10-18T23:57:41.703Z,19.92
